FYLZ/LUD METAR and TAF weather

Enter ICAO airport designator
Station Type Date Time Source
FYLZ METAR 2019/02/23 17:00 UTC NOAA

FYLZ 231700Z AUTO 20011KT //// // ////// 23/16 Q1012


Station Type Date Time Source
FYLZ Decoded METAR 2019/02/23 17:00 UTC NOAA

Luderitz / Diaz Point, Namibia (FYLZ) 26-41S 015-15E
Feb 23, 2019 - 12:00 PM EST / 2019.02.23 1700 UTC
Wind: from the SSW (200 degrees) at 13 MPH (11 KT):0
Temperature: 73 F (23 C)
Dew Point: 60 F (16 C)
Relative Humidity: 64%
Pressure (altimeter): 29.88 in. Hg (1012 hPa)
ob: FYLZ 231700Z AUTO 20011KT //// // ////// 23/16 Q1012
cycle: 17

Station Type Date Time Source
FYLZ TAF 2014/11/15 15:19 UTC NOAA

TAF FYLZ 151400Z 1515/1524 18015G28KT CAVOK
BECMG 1518/1520 16020KT


Example: see airport list